Diadema Argentina, Argentina
Current Conditions -  °F | °C
As of 6:18 PM on Sunday 23 Nov 2014 (Local Time) from SAVC Reporting Station
Rain Showers Rain Showers  
Wind Chill: 72°   Ceiling: Unl
Heat Index: 72°   Visibility: 6mi
Dew Point: 34°   Wind: 21mph
Humidity: 25%   Direction: 270°W
Pressure: 29.38"   Gusts: 32mph
Location:  45.77°S, 67.67°W
Report Text: SAVC 232118Z 27018G28KT 9999 SH SCT035 FEW040CB 22/01 Q0995
Loading
Personal Weather Stations






























Interactive Weather Map New forecast layout! Learn more

10-Day Weather Forecast

Advertisements
Track Severe Weather on mobile